Overview Statistics Trail Chart Weather Telemetry Raw packets
 

This is the latest recevied weather packets stored in our database for station/object HS2XQB-3. If no packets are shown the sender has not sent any weather packets the latest 10 day(s).

<< 7 8 9 10 11 12 13 >>
Time Temp. Humidity Pressure Rain* Wind** Luminosity Snow
1788313053 28.33° C 42% 1007 hPa - - 0 W/m² -
1788311231 35° C 67% 1006 hPa - - 0 W/m² -
1788309409 33.33° C 71% 1006 hPa - - 0 W/m² -
1788307587 30° C 76% 1006 hPa - - 0 W/m² -
1788305765 29.44° C 77% 1006 hPa - - 0 W/m² -
1788303943 29.44° C 77% 1006 hPa - - 0 W/m² -
1788302121 29.44° C 76% 1006 hPa - - 0 W/m² -
1788300299 29.44° C 75% 1006 hPa - - 0 W/m² -
1788298477 29.44° C 74% 1005 hPa - - 0 W/m² -
1788296666 29.44° C 74% 1005 hPa - - 0 W/m² -
1788294833 29.44° C 74% 1005 hPa - - 0 W/m² -
1788293011 29.44° C 73% 1006 hPa - - 0 W/m² -
1788291189 29.44° C 73% 1006 hPa - - 0 W/m² -
1788289367 29.44° C 72% 1006 hPa - - 0 W/m² -
1788287545 29.44° C 72% 1006 hPa - - 0 W/m² -
1788285723 29.44° C 71% 1006 hPa - - 0 W/m² -
1788283901 30° C 70% 1006 hPa - - 0 W/m² -
1788282079 30° C 69% 1007 hPa - - 0 W/m² -
1788280257 30° C 68% 1007 hPa - - 0 W/m² -
1788278435 30° C 68% 1007 hPa - - 0 W/m² -
1788276613 30° C 68% 1007 hPa - - 0 W/m² -
1788274791 31.11° C 65% 1007 hPa - - 0 W/m² -
1788272969 31.11° C 65% 1007 hPa - - 0 W/m² -
1788269325 33.33° C 60% 1007 hPa - - 0 W/m² -
1788267503 33.33° C 59% 1005 hPa - - 0 W/m² -

* Rain since midnight (hover to see other rain measurements)
** Current wind speed in m/s (hover to see current wind gust speed)